| time (UTC) | temp F | wind direction | speed knots | gust knots | rain 1hr in | rain 24hr in | rain mn in | humidity % | barometer mb |
| 20260508213032 | 80 | 0.0 | 0.0 | 0.00 | 0.00 | 0.00 | 18 | 1015.2 | |
| 20260508211532 | 82 | 0.0 | 0.0 | 0.00 | 0.00 | 0.00 | 19 | 1015.4 | |
| 20260508210032 | 79 | 0.0 | 0.0 | 0.00 | 0.00 | 0.00 | 17 | 1015.5 | |
| 20260508204532 | 79 | 0.0 | 0.0 | 0.00 | 0.00 | 0.00 | 19 | 1015.7 | |
| 20260508203039 | 80 | 0.0 | 0.0 | 0.00 | 0.00 | 0.00 | 16 | 1015.9 | |
| 20260508201534 | 80 | 0.0 | 0.0 | 0.00 | 0.00 | 0.00 | 18 | 1015.8 | |
| 20260508200033 | 79 | 0.0 | 0.0 | 0.00 | 0.00 | 0.00 | 20 | 1015.9 | |
| 20260508194530 | 79 | 0.0 | 0.0 | 0.00 | 0.00 | 0.00 | 20 | 1016.0 | |
| 20260508193030 | 79 | 0.0 | 0.0 | 0.00 | 0.00 | 0.00 | 20 | 1016.0 | |
| 20260508191538 | 78 | 0.0 | 0.0 | 0.00 | 0.00 | 0.00 | 23 | 1016.2 | |
| 20260508190035 | 78 | 0.0 | 0.0 | 0.00 | 0.00 | 0.00 | 22 | 1016.4 | |
| 20260508184532 | 78 | 0.0 | 0.0 | 0.00 | 0.00 | 0.00 | 22 | 1016.5 | |
| 20260508183035 | 76 | 0.0 | 0.0 | 0.00 | 0.00 | 0.00 | 23 | 1016.6 | |
| 20260508181536 | 75 | 0.0 | 0.0 | 0.00 | 0.00 | 0.00 | 24 | 1016.6 | |
| 20260508180029 | 73 | 0.0 | 0.0 | 0.00 | 0.00 | 0.00 | 28 | 1016.6 | |
| 20260508174536 | 71 | 0.0 | 0.0 | 0.00 | 0.00 | 0.00 | 30 | 1016.8 | |
| 20260508173039 | 71 | 0.0 | 0.0 | 0.00 | 0.00 | 0.00 | 32 | 1016.8 | |
| 20260508171534 | 70 | 0.0 | 0.0 | 0.00 | 0.00 | 0.00 | 32 | 1016.7 | |
| 20260508170034 | 69 | 0.0 | 0.0 | 0.00 | 0.00 | 0.00 | 32 | 1016.6 | |
| 20260508164534 | 68 | 0.0 | 0.0 | 0.00 | 0.00 | 0.00 | 32 | 1016.6 | |
| 20260508163036 | 67 | 0.0 | 0.0 | 0.00 | 0.00 | 0.00 | 36 | 1016.5 | |
| 20260508161535 | 66 | 0.0 | 0.0 | 0.00 | 0.00 | 0.00 | 38 | 1016.5 | |
| 20260508160036 | 64 | 0.0 | 0.0 | 0.00 | 0.00 | 0.00 | 36 | 1016.3 | |
| 20260508154534 | 62 | 0.0 | 0.0 | 0.00 | 0.00 | 0.00 | 43 | 1016.3 | |
| 20260508153035 | 60 | 0.0 | 0.0 | 0.00 | 0.00 | 0.00 | 44 | 1016.3 | |
| 20260508151540 | 57 | 0.0 | 0.0 | 0.00 | 0.00 | 0.00 | 50 | 1016.1 | |
| 20260508150036 | 54 | 0.0 | 0.0 | 0.00 | 0.00 | 0.00 | 52 | 1016.0 | |
| 20260508144534 | 52 | 0.0 | 0.0 | 0.00 | 0.00 | 0.00 | 57 | 1016.0 | |
| 20260508143035 | 51 | 0.0 | 0.0 | 0.00 | 0.00 | 0.00 | 61 | 1016.0 | |
| 20260508141604 | 50 | 0.0 | 0.0 | 0.00 | 0.00 | 0.00 | 64 | 1015.9 | |
| 20260508140031 | 49 | 0.0 | 0.0 | 0.00 | 0.00 | 0.00 | 65 | 1015.8 | |
| 20260508134548 | 49 | 0.0 | 0.0 | 0.00 | 0.00 | 0.00 | 63 | 1015.7 | |
| 20260508133030 | 48 | 0.0 | 0.0 | 0.00 | 0.00 | 0.00 | 62 | 1015.5 | |
| 20260508131535 | 48 | 0.0 | 0.0 | 0.00 | 0.00 | 0.00 | 60 | 1015.4 | |
| 20260508130032 | 48 | 0.0 | 0.0 | 0.00 | 0.00 | 0.00 | 59 | 1015.3 | |
| 20260508124533 | 48 | 0.0 | 0.0 | 0.00 | 0.00 | 0.00 | 59 | 1015.1 | |
| 20260508123044 | 49 | 0.0 | 0.0 | 0.00 | 0.00 | 0.00 | 58 | 1014.9 | |
| 20260508121534 | 49 | 0.0 | 0.0 | 0.00 | 0.00 | 0.00 | 56 | 1014.7 | |
| 20260508120029 | 50 | 0.0 | 0.0 | 0.00 | 0.00 | 0.00 | 56 | 1014.7 | |
| 20260508114537 | 51 | 0.0 | 0.0 | 0.00 | 0.00 | 0.00 | 54 | 1014.6 | |
| 20260508113047 | 51 | 0.0 | 0.0 | 0.00 | 0.00 | 0.00 | 54 | 1014.5 | |
| 20260508111532 | 51 | 0.0 | 0.0 | 0.00 | 0.00 | 0.00 | 54 | 1014.5 | |
| 20260508110030 | 50 | 0.0 | 0.0 | 0.00 | 0.00 | 0.00 | 54 | 1014.6 | |
| 20260508104533 | 51 | 0.0 | 0.0 | 0.00 | 0.00 | 0.00 | 54 | 1014.6 | |
| 20260508103036 | 50 | 0.0 | 0.0 | 0.00 | 0.00 | 0.00 | 54 | 1014.4 | |
| 20260508101535 | 50 | 0.0 | 0.0 | 0.00 | 0.00 | 0.00 | 54 | 1014.4 | |
| 20260508100035 | 50 | 0.0 | 0.0 | 0.00 | 0.00 | 0.00 | 54 | 1014.4 | |
| 20260508094531 | 51 | 0.0 | 0.0 | 0.00 | 0.00 | 0.00 | 53 | 1014.3 | |
| 20260508093036 | 51 | 0.0 | 0.0 | 0.00 | 0.00 | 0.00 | 52 | 1014.1 | |
| 20260508091547 | 51 | 0.0 | 0.0 | 0.00 | 0.00 | 0.00 | 52 | 1013.8 | |
| 20260508090039 | 51 | 0.0 | 0.0 | 0.00 | 0.00 | 0.00 | 52 | 1013.8 | |
| 20260508084534 | 52 | 0.0 | 0.0 | 0.00 | 0.00 | 0.00 | 51 | 1013.9 | |
| 20260508083030 | 53 | 0.0 | 0.0 | 0.00 | 0.00 | 0.00 | 51 | 1014.0 | |
| 20260508081535 | 54 | 0.0 | 0.0 | 0.00 | 0.00 | 0.00 | 49 | 1013.9 | |
| 20260508080036 | 55 | 0.0 | 0.0 | 0.00 | 0.00 | 0.00 | 45 | 1014.0 | |
| 20260508074546 | 55 | 0.0 | 0.0 | 0.00 | 0.00 | 0.00 | 45 | 1014.1 | |
| 20260508073034 | 56 | 0.0 | 0.0 | 0.00 | 0.00 | 0.00 | 44 | 1013.8 | |
| 20260508071536 | 57 | 0.0 | 0.0 | 0.00 | 0.00 | 0.00 | 43 | 1013.8 | |
| 20260508070032 | 57 | 0.0 | 0.0 | 0.00 | 0.00 | 0.00 | 43 | 1013.8 | |
| 20260508064530 | 56 | 0.0 | 0.0 | 0.00 | 0.00 | 0.00 | 43 | 1013.7 | |
| 20260508063035 | 56 | 0.0 | 0.0 | 0.00 | 0.00 | 0.00 | 45 | 1013.8 | |
| 20260508061534 | 55 | 0.0 | 0.0 | 0.00 | 0.00 | 0.00 | 45 | 1013.8 | |
| 20260508060034 | 55 | 0.0 | 0.0 | 0.00 | 0.00 | 0.00 | 45 | 1013.7 | |
| 20260508054533 | 56 | 0.0 | 0.0 | 0.00 | 0.00 | 0.00 | 45 | 1013.6 | |
| 20260508053032 | 57 | 0.0 | 0.0 | 0.00 | 0.00 | 0.00 | 44 | 1013.6 | |
| 20260508051530 | 58 | 0.0 | 0.0 | 0.00 | 0.00 | 0.00 | 43 | 1013.4 | |
| 20260508050035 | 58 | 0.0 | 0.0 | 0.00 | 0.00 | 0.00 | 43 | 1013.4 | |
| 20260508044536 | 58 | 0.0 | 0.0 | 0.00 | 0.00 | 0.00 | 43 | 1013.3 | |
| 20260508043038 | 59 | 0.0 | 0.0 | 0.00 | 0.00 | 0.00 | 42 | 1013.3 | |
| 20260508041534 | 60 | 0.0 | 0.0 | 0.00 | 0.00 | 0.00 | 41 | 1013.4 | |
| 20260508040032 | 59 | 0.0 | 0.0 | 0.00 | 0.00 | 0.00 | 42 | 1013.4 | |
| 20260508034530 | 59 | 0.0 | 0.0 | 0.00 | 0.00 | 0.00 | 42 | 1013.2 | |
| 20260508033035 | 60 | 0.0 | 0.0 | 0.00 | 0.00 | 0.00 | 41 | 1013.2 | |
| 20260508031533 | 61 | 0.0 | 0.0 | 0.00 | 0.00 | 0.00 | 42 | 1013.2 | |
| 20260508030039 | 63 | 0.0 | 0.0 | 0.00 | 0.00 | 0.00 | 39 | 1013.0 | |
| 20260508024537 | 65 | 0.0 | 0.0 | 0.00 | 0.00 | 0.00 | 36 | 1012.9 | |
| 20260508023032 | 68 | 0.0 | 0.0 | 0.00 | 0.00 | 0.00 | 32 | 1012.8 | |
| 20260508021544 | 70 | 0.0 | 0.0 | 0.00 | 0.00 | 0.00 | 31 | 1012.8 | |
| 20260508020035 | 71 | 0.0 | 0.0 | 0.00 | 0.00 | 0.00 | 30 | 1012.6 | |
| 20260508014533 | 72 | 0.0 | 0.0 | 0.00 | 0.00 | 0.00 | 27 | 1012.7 | |
| 20260508013040 | 73 | 0.0 | 0.0 | 0.00 | 0.00 | 0.00 | 26 | 1012.6 | |
| 20260508011536 | 73 | 0.0 | 0.0 | 0.00 | 0.00 | 0.00 | 25 | 1012.6 | |
| 20260508010033 | 74 | 0.0 | 0.0 | 0.00 | 0.00 | 0.00 | 23 | 1012.6 | |
| 20260508004537 | 74 | 0.0 | 0.0 | 0.00 | 0.00 | 0.00 | 23 | 1012.8 | |
| 20260508003037 | 75 | 0.0 | 0.0 | 0.00 | 0.00 | 0.00 | 22 | 1012.9 | |
| 20260508001534 | 75 | 0.0 | 0.0 | 0.00 | 0.00 | 0.00 | 24 | 1012.9 | |
| 20260508000033 | 75 | 0.0 | 0.0 | 0.00 | 0.00 | 0.00 | 26 | 1013.0 | |
| 20260507234532 | 75 | 0.0 | 0.0 | 0.00 | 0.00 | 0.00 | 22 | 1013.1 | |
| 20260507233036 | 76 | 0.0 | 0.0 | 0.00 | 0.00 | 0.00 | 24 | 1013.4 | |
| 20260507231533 | 77 | 0.0 | 0.0 | 0.00 | 0.00 | 0.00 | 22 | 1013.4 | |
| 20260507230033 | 76 | 0.0 | 0.0 | 0.00 | 0.00 | 0.00 | 22 | 1013.7 | |
| 20260507224534 | 77 | 0.0 | 0.0 | 0.00 | 0.00 | 0.00 | 23 | 1013.9 | |
| 20260507223032 | 77 | 0.0 | 0.0 | 0.00 | 0.00 | 0.00 | 23 | 1014.1 | |
| 20260507221533 | 77 | 0.0 | 0.0 | 0.00 | 0.00 | 0.00 | 23 | 1014.2 | |
| 20260507220031 | 77 | 0.0 | 0.0 | 0.00 | 0.00 | 0.00 | 22 | 1014.5 | |
| 20260507214545 | 78 | 0.0 | 0.0 | 0.00 | 0.00 | 0.00 | 23 | 1014.8 |